Time;durP1;ratioP1;P1;durP2;ratioP2;P2;SDS_P1;SDS_P2;PMS_P1;PMS_P2;Temp;Humidity;BMP_temperature;BMP_pressure;BME280_temperature;BME280_humidity;BME280_pressure;Samples;Min_cycle;Max_cycle;Signal;HPM_P1;HPM_P2
2021/03/25 00:00:51;;;;;;;132.32;51.30;;;;;;;1.01;84.17;102064.63;5035843;28;20115;-68
2021/03/25 00:03:18;;;;;;;121.00;46.58;;;;;;;1.11;82.33;102060.09;5033011;28;20104;-69
2021/03/25 00:05:46;;;;;;;118.38;48.20;;;;;;;1.09;83.33;102057.63;5036086;28;20053;-69
2021/03/25 00:08:16;;;;;;;127.55;47.70;;;;;;;1.07;84.20;102064.00;5036213;28;20502;-69
2021/03/25 00:10:43;;;;;;;119.35;47.10;;;;;;;1.13;82.96;102063.41;5042437;28;20777;-69
2021/03/25 00:13:09;;;;;;;120.63;48.00;;;;;;;1.13;83.94;102058.94;5033609;28;20028;-69
2021/03/25 00:15:35;;;;;;;131.82;47.78;;;;;;;1.14;84.38;102063.25;5034996;28;20029;-69
2021/03/25 00:18:01;;;;;;;128.48;49.80;;;;;;;1.14;84.72;102054.50;5039959;28;20104;-69
2021/03/25 00:20:27;;;;;;;125.38;47.17;;;;;;;1.14;84.69;102047.41;5041159;28;20132;-69
2021/03/25 00:22:53;;;;;;;121.35;48.25;;;;;;;1.14;85.40;102043.94;5038702;28;20590;-69
2021/03/25 00:25:22;;;;;;;137.80;50.47;;;;;;;1.11;85.29;102041.63;5039439;28;20035;-69
2021/03/25 00:27:48;;;;;;;102.65;43.13;;;;;;;1.08;85.47;102040.13;5040829;28;20447;-69
2021/03/25 00:30:15;;;;;;;120.07;45.63;;;;;;;0.99;84.00;102043.66;5037091;28;20049;-69
2021/03/25 00:32:42;;;;;;;105.95;43.97;;;;;;;0.86;83.62;102051.97;5036112;28;20744;-69
2021/03/25 00:35:10;;;;;;;135.55;49.90;;;;;;;0.81;84.14;102046.31;5036682;28;20075;-69
2021/03/25 00:37:37;;;;;;;131.07;48.95;;;;;;;0.73;85.30;102046.28;5040403;28;20407;-68
2021/03/25 00:40:05;;;;;;;138.85;49.97;;;;;;;0.76;85.74;102032.78;5036777;28;20053;-69
2021/03/25 00:42:31;;;;;;;127.80;47.75;;;;;;;0.77;85.09;102037.06;5035325;28;20071;-69
2021/03/25 00:44:56;;;;;;;131.05;50.25;;;;;;;0.77;86.53;102038.88;5042044;28;20055;-69
2021/03/25 00:47:22;;;;;;;149.05;50.17;;;;;;;0.78;86.30;102033.44;5028650;28;20596;-69
2021/03/25 00:49:47;;;;;;;104.68;42.45;;;;;;;0.86;85.08;102036.13;5035306;28;20040;-69
2021/03/25 00:52:13;;;;;;;132.05;45.83;;;;;;;0.83;85.81;102035.63;5032918;28;20029;-69
2021/03/25 00:54:38;;;;;;;119.93;45.45;;;;;;;0.84;85.10;102030.19;5032488;28;20079;-69
2021/03/25 00:57:05;;;;;;;123.65;48.83;;;;;;;0.83;86.61;102036.44;5033887;28;20527;-69
2021/03/25 00:59:30;;;;;;;143.77;52.80;;;;;;;0.69;86.62;102036.97;5034194;28;20018;-69
2021/03/25 01:01:56;;;;;;;145.55;53.35;;;;;;;0.71;87.07;102035.03;5033542;28;20033;-69
2021/03/25 01:04:21;;;;;;;123.88;47.50;;;;;;;0.71;87.25;102034.19;5036298;28;20120;-68
2021/03/25 01:06:47;;;;;;;137.90;50.22;;;;;;;0.76;86.99;102035.41;5042200;28;20111;-69
2021/03/25 01:09:17;;;;;;;142.93;50.42;;;;;;;0.79;87.27;102040.38;5032628;28;20032;-69
2021/03/25 01:11:43;;;;;;;139.95;51.35;;;;;;;0.88;87.04;102036.81;5033012;28;20032;-69
2021/03/25 01:14:10;;;;;;;128.13;46.17;;;;;;;0.95;85.81;102033.56;5034397;28;20044;-69
2021/03/25 01:16:39;;;;;;;144.32;51.03;;;;;;;0.99;86.12;102027.84;5033555;28;20025;-69
2021/03/25 01:19:10;;;;;;;121.10;47.20;;;;;;;1.07;83.92;102030.50;5035171;28;20024;-69
2021/03/25 01:21:36;;;;;;;139.57;49.78;;;;;;;1.15;83.12;102025.31;5035164;28;20029;-69
2021/03/25 01:24:02;;;;;;;128.77;49.75;;;;;;;1.14;84.01;102031.56;5033315;28;20067;-69
2021/03/25 01:26:28;;;;;;;128.00;49.20;;;;;;;1.15;83.63;102027.94;5031463;28;20037;-69
2021/03/25 01:28:53;;;;;;;131.23;50.35;;;;;;;1.11;83.96;102028.41;5034585;28;20013;-69
2021/03/25 01:31:19;;;;;;;127.32;49.83;;;;;;;1.06;84.82;102025.41;5032899;28;20026;-69
2021/03/25 01:33:45;;;;;;;123.18;48.63;;;;;;;1.04;84.72;102027.38;5030846;28;20055;-69
2021/03/25 01:36:10;;;;;;;145.00;50.92;;;;;;;0.98;84.96;102030.63;5036036;28;20119;-69
2021/03/25 01:38:36;;;;;;;120.18;47.42;;;;;;;0.90;84.72;102029.59;5036322;28;20036;-69
2021/03/25 01:41:03;;;;;;;141.70;50.65;;;;;;;0.85;84.38;102026.56;5035936;28;20384;-69
2021/03/25 01:43:40;;;;;;;140.68;50.22;;;;;;;0.80;84.45;102026.22;5038326;28;20025;-69
2021/03/25 01:46:36;;;;;;;144.75;52.00;;;;;;;0.74;84.53;102016.28;5032692;28;20083;-69
2021/03/25 01:49:07;;;;;;;144.05;49.78;;;;;;;0.73;85.01;102003.25;5034512;28;20029;-69
2021/03/25 01:51:39;;;;;;;153.93;52.65;;;;;;;0.74;85.05;102011.00;5034130;28;20064;-69
2021/03/25 01:54:17;;;;;;;132.35;50.05;;;;;;;0.79;84.79;102008.72;5033766;28;20523;-69
2021/03/25 01:57:10;;;;;;;147.38;50.25;;;;;;;0.76;85.75;102018.75;5033556;28;20037;-69
2021/03/25 01:59:38;;;;;;;141.05;49.45;;;;;;;0.76;86.81;102013.47;5033086;28;20056;-69
2021/03/25 02:02:35;;;;;;;116.20;44.35;;;;;;;0.78;85.82;102007.06;5036917;28;20032;-69
2021/03/25 02:05:13;;;;;;;131.25;49.78;;;;;;;0.79;85.79;102006.09;5037289;28;20017;-69
2021/03/25 02:07:49;;;;;;;140.70;49.40;;;;;;;0.83;85.83;102003.97;5036300;28;20717;-69
2021/03/25 02:10:21;;;;;;;136.30;50.80;;;;;;;0.85;85.40;102008.09;5031537;28;20147;-69
2021/03/25 02:12:46;;;;;;;128.30;47.85;;;;;;;0.91;84.58;102001.41;5045246;28;20025;-69
2021/03/25 02:15:39;;;;;;;137.23;47.45;;;;;;;0.83;85.00;102010.06;5031841;28;20052;-69
2021/03/25 02:18:11;;;;;;;137.40;49.22;;;;;;;0.80;84.85;102006.91;5035237;28;20116;-69
2021/03/25 02:21:12;;;;;;;126.00;45.67;;;;;;;0.82;84.58;102007.56;5046070;28;20040;-69
2021/03/25 02:23:55;;;;;;;140.32;48.88;;;;;;;0.79;86.15;102006.09;5047123;28;20094;-69
2021/03/25 02:26:30;;;;;;;127.82;47.65;;;;;;;0.76;85.70;102010.84;5054711;28;20024;-69
2021/03/25 02:29:21;;;;;;;132.23;48.95;;;;;;;0.69;86.21;102010.59;5039483;28;20049;-69
2021/03/25 02:31:52;;;;;;;126.13;46.83;;;;;;;0.76;85.24;102014.31;5043950;28;20033;-69
2021/03/25 02:34:30;;;;;;;133.70;43.50;;;;;;;0.74;85.06;102007.53;5042426;28;20025;-69
2021/03/25 02:37:07;;;;;;;130.90;50.53;;;;;;;0.77;84.99;102008.03;5056300;28;20033;-69
2021/03/25 02:39:41;;;;;;;122.72;46.65;;;;;;;0.76;84.71;102006.41;5043201;28;20108;-69
2021/03/25 02:42:10;;;;;;;126.05;48.50;;;;;;;0.74;85.45;102005.72;5035784;28;20128;-69
2021/03/25 02:44:43;;;;;;;127.18;46.53;;;;;;;0.75;84.99;102003.91;5043710;28;20040;-69
2021/03/25 02:47:10;;;;;;;146.63;52.25;;;;;;;0.73;84.84;102001.44;5037336;28;20024;-69
2021/03/25 02:49:46;;;;;;;137.32;50.50;;;;;;;0.75;84.90;102002.09;5038373;28;20051;-69
2021/03/25 02:52:30;;;;;;;145.63;53.25;;;;;;;0.75;85.48;102001.28;5045062;28;20527;-69
2021/03/25 02:54:56;;;;;;;146.82;52.05;;;;;;;0.78;84.58;101999.16;5039636;28;20466;-69
2021/03/25 02:57:29;;;;;;;152.90;53.03;;;;;;;0.80;85.14;101989.28;5041394;28;20443;-69
2021/03/25 03:00:08;;;;;;;153.00;51.47;;;;;;;0.77;86.84;101992.22;5041871;28;20025;-69
2021/03/25 03:02:39;;;;;;;140.25;50.83;;;;;;;0.81;85.99;101988.28;5036139;28;20033;-69
2021/03/25 03:05:11;;;;;;;136.00;50.30;;;;;;;0.85;85.62;101988.78;5036738;28;20672;-69
2021/03/25 03:07:45;;;;;;;166.05;53.45;;;;;;;0.79;87.05;101990.25;5035664;28;20032;-69
2021/03/25 03:10:16;;;;;;;165.73;54.53;;;;;;;0.80;86.94;101989.28;5037723;28;20032;-69
2021/03/25 03:12:45;;;;;;;152.48;51.72;;;;;;;0.80;86.80;101986.63;5039388;28;20656;-69
2021/03/25 03:15:15;;;;;;;154.32;52.20;;;;;;;0.79;86.72;101982.34;5039286;28;20025;-69
2021/03/25 03:17:47;;;;;;;154.10;53.22;;;;;;;0.78;86.82;101985.13;5040568;28;20048;-68
2021/03/25 03:20:23;;;;;;;149.30;51.05;;;;;;;0.68;88.31;101982.56;5036752;28;20396;-69
2021/03/25 03:22:49;;;;;;;151.93;49.13;;;;;;;0.63;89.35;101986.66;5040475;28;20033;-69
2021/03/25 03:25:24;;;;;;;143.30;50.22;;;;;;;0.60;89.93;101991.25;5038643;28;20486;-69
2021/03/25 03:27:57;;;;;;;;;;;;;;;0.47;90.67;101992.63;5041967;28;20469;-69
2021/03/25 03:30:32;;;;;;;156.10;51.33;;;;;;;0.52;89.68;101992.97;5036420;28;20019;-69
2021/03/25 03:33:06;;;;;;;137.65;49.75;;;;;;;0.52;89.79;101990.34;5051156;28;20553;-69
2021/03/25 03:35:41;;;;;;;152.60;52.88;;;;;;;0.51;89.80;101988.69;5043663;28;20032;-69
2021/03/25 03:38:18;;;;;;;147.15;52.00;;;;;;;0.45;90.50;101990.13;5037391;28;20487;-69
2021/03/25 03:40:49;;;;;;;151.05;50.45;;;;;;;0.52;89.17;101992.97;5035193;28;20036;-69
2021/03/25 03:43:16;;;;;;;153.82;53.47;;;;;;;0.46;90.62;101991.78;5025209;28;20040;-68
2021/03/25 03:45:46;;;;;;;144.80;51.42;;;;;;;0.41;91.98;101991.41;5025302;28;20821;-69
2021/03/25 03:48:35;;;;;;;154.65;55.38;;;;;;;0.43;92.43;101988.63;5023670;28;20501;-69
2021/03/25 03:51:03;;;;;;;169.88;58.35;;;;;;;0.46;90.86;101985.69;5040629;28;20045;-69
2021/03/25 03:53:30;;;;;;;145.95;51.90;;;;;;;0.48;90.62;101989.00;5023924;28;20116;-68
2021/03/25 03:56:25;;;;;;;164.45;55.05;;;;;;;0.48;90.86;101981.91;5025043;28;20033;-69
2021/03/25 03:58:54;;;;;;;171.23;56.97;;;;;;;0.47;90.85;101982.06;5025811;28;20695;-69
2021/03/25 04:01:32;;;;;;;164.25;55.40;;;;;;;0.48;89.99;101981.91;5025718;28;20028;-69
2021/03/25 04:04:09;;;;;;;170.32;57.95;;;;;;;0.44;90.16;101977.09;5020691;28;20025;-69
2021/03/25 04:06:42;;;;;;;177.32;55.20;;;;;;;0.40;91.02;101981.03;5025416;28;20039;-69
2021/03/25 04:09:19;;;;;;;164.15;53.95;;;;;;;0.37;90.86;101982.16;5025395;28;20032;-69
2021/03/25 04:11:55;;;;;;;178.23;55.72;;;;;;;0.35;90.85;101984.09;5024237;28;20025;-69
2021/03/25 04:14:25;;;;;;;168.57;57.30;;;;;;;0.32;91.51;101987.03;5034754;28;20415;-72
2021/03/25 04:16:52;;;;;;;180.38;56.55;;;;;;;0.29;91.34;101985.53;5039257;28;20025;-71
2021/03/25 04:19:24;;;;;;;189.70;57.70;;;;;;;0.26;92.00;101988.47;5037120;28;20032;-73
2021/03/25 04:22:03;;;;;;;181.45;54.38;;;;;;;0.20;91.85;101978.53;5031386;28;20036;-72
2021/03/25 04:24:34;;;;;;;183.85;55.17;;;;;;;0.14;92.40;101979.13;5038345;28;20025;-72
2021/03/25 04:27:13;;;;;;;175.45;55.20;;;;;;;0.13;93.32;101984.53;5038020;28;20135;-73
2021/03/25 04:30:07;;;;;;;152.48;52.20;;;;;;;0.13;93.17;101981.91;5037558;28;20495;-71
2021/03/25 04:32:33;;;;;;;167.45;54.75;;;;;;;0.20;92.38;101991.72;5037430;28;20090;-72
2021/03/25 04:35:01;;;;;;;177.73;53.90;;;;;;;0.26;91.46;101992.91;5037190;28;22043;-74
2021/03/25 04:37:29;;;;;;;159.65;55.45;;;;;;;0.23;92.40;101987.97;5036460;28;20162;-72
2021/03/25 04:39:58;;;;;;;172.30;54.88;;;;;;;0.21;92.96;101992.56;5035371;28;20142;-73
2021/03/25 04:42:24;;;;;;;141.75;50.72;;;;;;;0.26;91.97;101996.38;5039223;28;20054;-71
2021/03/25 04:44:59;;;;;;;180.95;54.22;;;;;;;0.32;91.20;101994.94;5034583;28;21320;-71
2021/03/25 04:47:28;;;;;;;169.48;53.63;;;;;;;0.32;90.78;102000.22;5036862;28;20028;-73
2021/03/25 04:49:59;;;;;;;169.18;54.00;;;;;;;0.31;91.10;102003.84;5047515;28;20025;-73
2021/03/25 04:52:31;;;;;;;174.98;55.95;;;;;;;0.39;90.63;101995.19;5036800;28;20635;-71
2021/03/25 04:55:14;;;;;;;193.50;57.90;;;;;;;0.28;91.60;101996.22;5034660;28;20028;-71
2021/03/25 04:57:50;;;;;;;186.48;56.20;;;;;;;0.24;91.64;101998.34;5036817;28;20543;-71
2021/03/25 05:00:22;;;;;;;215.50;59.45;;;;;;;0.28;91.51;102004.13;5037061;28;20514;-72
2021/03/25 05:02:47;;;;;;;210.77;58.40;;;;;;;0.30;91.27;102008.28;5038595;28;20033;-73
2021/03/25 05:05:21;;;;;;;211.90;62.30;;;;;;;0.28;91.04;102004.97;5035228;28;20037;-72
2021/03/25 05:07:53;;;;;;;154.90;52.70;;;;;;;0.40;89.99;102002.94;5037117;28;20045;-71
2021/03/25 05:10:26;;;;;;;180.90;55.72;;;;;;;0.42;91.16;102010.72;5036178;28;20025;-72
2021/03/25 05:12:54;;;;;;;180.05;53.35;;;;;;;0.35;92.09;102004.34;5035416;28;20028;-73
2021/03/25 05:15:20;;;;;;;166.85;56.45;;;;;;;0.30;93.05;102002.19;5035273;28;20276;-73
2021/03/25 05:17:57;;;;;;;168.13;53.92;;;;;;;0.25;92.53;102000.00;5036997;28;20060;-72
2021/03/25 05:20:40;;;;;;;164.23;53.15;;;;;;;0.22;92.84;102007.38;5032334;28;20075;-73
2021/03/25 05:23:18;;;;;;;178.32;54.25;;;;;;;0.33;92.35;102006.31;5034321;28;20100;-70
2021/03/25 05:26:05;;;;;;;196.73;57.05;;;;;;;0.37;91.04;102005.06;5046448;28;20060;-73
2021/03/25 05:28:37;;;;;;;180.82;54.38;;;;;;;0.42;91.47;102008.06;5035107;28;20025;-74
2021/03/25 05:31:07;;;;;;;193.13;56.63;;;;;;;0.43;91.44;102013.19;5033971;28;20434;-72
2021/03/25 05:33:34;;;;;;;160.95;53.60;;;;;;;0.49;90.91;102014.38;5047748;28;20104;-72
2021/03/25 05:36:08;;;;;;;181.63;53.38;;;;;;;0.53;90.19;102013.09;5035849;28;20033;-73
2021/03/25 05:38:33;;;;;;;182.27;54.95;;;;;;;0.62;89.76;102004.28;5047839;28;20064;-72
2021/03/25 05:41:13;;;;;;;159.65;49.17;;;;;;;0.69;88.11;102010.59;5024984;28;20971;-71
2021/03/25 05:44:15;;;;;;;150.02;48.42;;;;;;;0.66;89.09;102010.91;5024186;28;20063;-73
2021/03/25 05:47:17;;;;;;;122.70;45.17;;;;;;;0.66;88.84;102008.28;5021452;28;21412;-72
2021/03/25 05:50:40;;;;;;;134.57;47.03;;;;;;;0.74;88.11;102012.81;5038268;28;20821;-72
2021/03/25 05:53:32;;;;;;;144.55;45.50;;;;;;;0.77;89.72;102013.31;5019549;28;20032;-73
2021/03/25 05:56:09;;;;;;;131.25;46.38;;;;;;;1.04;87.75;102007.06;5039853;28;20032;-71
2021/03/25 05:58:47;;;;;;;131.80;46.92;;;;;;;1.18;86.88;102011.78;5026637;28;20036;-73
2021/03/25 06:01:42;;;;;;;115.25;44.13;;;;;;;1.26;86.27;102018.94;5023799;28;20043;-71
2021/03/25 06:04:19;;;;;;;119.68;44.35;;;;;;;1.50;85.13;102012.97;5023472;28;20079;-71
2021/03/25 06:07:06;;;;;;;138.90;47.65;;;;;;;1.50;87.48;102019.06;5021505;28;20028;-72
2021/03/25 06:09:40;;;;;;;110.47;43.15;;;;;;;1.79;84.92;102021.34;5017564;28;21097;-73
2021/03/25 06:12:50;;;;;;;129.95;46.28;;;;;;;1.92;85.75;102017.44;5019748;28;20065;-72
2021/03/25 06:15:27;;;;;;;132.90;46.88;;;;;;;2.08;85.57;102023.59;5021957;28;20033;-71
2021/03/25 06:18:34;;;;;;;130.23;48.33;;;;;;;2.11;85.48;102020.63;5019779;28;20036;-71
2021/03/25 06:21:14;;;;;;;128.40;45.65;;;;;;;2.21;84.23;102023.13;5032137;28;20045;-71
2021/03/25 06:23:59;;;;;;;129.23;45.60;;;;;;;2.33;82.95;102026.28;5019398;28;20028;-72
2021/03/25 06:26:45;;;;;;;126.63;45.83;;;;;;;2.30;85.51;102031.91;5022473;28;20036;-71
2021/03/25 06:29:27;;;;;;;126.13;44.88;;;;;;;2.23;86.20;102022.97;5019675;28;20071;-71
2021/03/25 06:32:02;;;;;;;121.95;43.85;;;;;;;2.31;86.43;102033.56;5020978;28;20223;-72
2021/03/25 06:34:37;;;;;;;121.20;43.27;;;;;;;2.46;85.55;102031.09;5032653;28;20487;-73
2021/03/25 06:37:16;;;;;;;113.18;42.95;;;;;;;2.28;87.77;102033.88;5021022;28;20075;-71
2021/03/25 06:39:49;;;;;;;126.50;43.63;;;;;;;2.22;88.49;102037.19;5022465;28;20068;-73
2021/03/25 06:42:22;;;;;;;118.70;43.75;;;;;;;2.33;88.44;102040.34;5036168;28;20035;-72
2021/03/25 06:44:55;;;;;;;121.63;45.17;;;;;;;2.65;86.76;102036.91;5022871;28;20025;-72
2021/03/25 06:47:44;;;;;;;104.38;41.30;;;;;;;2.69;86.60;102032.97;5034691;28;20120;-72
2021/03/25 06:50:15;;;;;;;106.88;42.03;;;;;;;2.63;88.58;102038.06;5022458;28;20126;-73
2021/03/25 06:52:41;;;;;;;119.65;44.08;;;;;;;2.64;88.27;102035.25;5022467;28;22102;-71
2021/03/25 06:55:21;;;;;;;119.32;46.55;;;;;;;2.68;88.47;102046.34;5019570;28;20033;-71
2021/03/25 06:57:49;;;;;;;110.50;41.70;;;;;;;3.12;85.83;102073.31;5019256;28;20040;-71
2021/03/25 07:00:19;;;;;;;115.28;43.70;;;;;;;3.44;84.24;102053.91;5014669;28;20087;-73
2021/03/25 07:02:46;;;;;;;108.65;42.47;;;;;;;3.68;83.38;102055.66;5019220;28;20032;-71
2021/03/25 07:05:22;;;;;;;117.32;44.88;;;;;;;3.72;83.63;102059.63;5022096;28;21937;-72
2021/03/25 07:07:53;;;;;;;109.22;43.60;;;;;;;3.69;84.88;102067.09;5023606;28;20028;-72
2021/03/25 07:10:19;;;;;;;108.32;42.88;;;;;;;3.62;85.62;102067.78;5023884;28;20562;-74
2021/03/25 07:12:47;;;;;;;104.05;40.22;;;;;;;3.87;83.78;102068.50;5026023;28;20137;-72
2021/03/25 07:15:25;;;;;;;100.25;41.08;;;;;;;4.06;83.07;102063.78;5026157;28;20641;-74
2021/03/25 07:17:53;;;;;;;98.90;41.08;;;;;;;4.33;82.51;102066.00;5027476;28;20051;-73
2021/03/25 07:20:25;;;;;;;94.47;37.55;;;;;;;4.45;81.11;102067.22;5025273;28;20037;-73
2021/03/25 07:23:09;;;;;;;96.03;39.78;;;;;;;4.66;80.07;102071.06;5024877;28;20033;-71
2021/03/25 07:25:38;;;;;;;99.10;41.25;;;;;;;4.88;79.50;102064.94;5026801;28;20037;-72
2021/03/25 07:28:12;;;;;;;87.55;36.90;;;;;;;4.88;79.77;102064.94;5022178;28;20048;-73
2021/03/25 07:30:50;;;;;;;88.60;38.50;;;;;;;5.13;78.51;102068.22;5025652;28;20083;-71
2021/03/25 07:33:19;;;;;;;88.05;39.30;;;;;;;5.40;78.27;102064.97;5024876;28;20945;-71
2021/03/25 07:35:47;;;;;;;95.63;40.10;;;;;;;5.66;76.08;102059.19;5025285;28;20113;-72
2021/03/25 07:38:23;;;;;;;87.15;39.50;;;;;;;5.72;76.96;102053.13;5024428;28;20044;-73
2021/03/25 07:41:15;;;;;;;94.82;37.15;;;;;;;6.21;75.24;102062.38;5022473;28;20033;-71
2021/03/25 07:44:05;;;;;;;80.50;34.38;;;;;;;6.19;75.01;102054.59;5025608;28;20028;-72
2021/03/25 07:46:43;;;;;;;88.82;37.45;;;;;;;6.48;74.16;102064.34;5025132;28;20029;-72
2021/03/25 07:49:12;;;;;;;92.40;39.70;;;;;;;6.32;74.87;102060.06;5023619;28;21151;-71
2021/03/25 07:51:46;;;;;;;86.78;37.83;;;;;;;6.08;75.75;102068.38;5038934;28;20503;-71
2021/03/25 07:54:35;;;;;;;85.20;38.15;;;;;;;5.97;74.94;102069.69;5024010;28;20037;-72
2021/03/25 07:57:07;;;;;;;89.43;39.72;;;;;;;6.12;75.72;102077.66;5024886;28;20182;-74
2021/03/25 07:59:51;;;;;;;88.68;39.78;;;;;;;6.46;74.52;102079.66;5018359;28;20029;-72
2021/03/25 08:02:29;;;;;;;86.63;37.95;;;;;;;6.62;73.62;102067.94;5023662;28;20029;-72
2021/03/25 08:04:56;;;;;;;89.10;40.92;;;;;;;6.88;72.49;102073.53;5025134;28;20098;-74
2021/03/25 08:07:23;;;;;;;83.35;35.45;;;;;;;6.93;71.89;102072.97;5024773;28;20377;-73
2021/03/25 08:09:56;;;;;;;82.45;38.83;;;;;;;6.98;72.51;102070.53;5021382;28;20122;-74
2021/03/25 08:12:35;;;;;;;85.80;40.15;;;;;;;7.15;71.63;102077.25;5023061;28;20041;-74
2021/03/25 08:15:20;;;;;;;82.65;37.25;;;;;;;7.37;71.50;102071.88;5023029;28;20462;-74
2021/03/25 08:18:01;;;;;;;83.23;38.00;;;;;;;7.58;70.23;102080.66;5023957;28;20091;-74
2021/03/25 08:20:38;;;;;;;92.53;39.88;;;;;;;7.88;68.98;102078.53;5022708;28;20271;-72
2021/03/25 08:23:28;;;;;;;81.35;37.88;;;;;;;8.03;68.26;102081.06;5023302;28;20033;-74
2021/03/25 08:26:02;;;;;;;88.57;38.50;;;;;;;8.19;67.61;102079.91;5025642;28;20024;-72
2021/03/25 08:29:01;;;;;;;87.95;38.78;;;;;;;8.15;67.93;102084.00;5023212;28;20028;-73
2021/03/25 08:31:56;;;;;;;90.05;39.45;;;;;;;8.78;66.39;102077.41;5021544;28;20024;-74
2021/03/25 08:34:35;;;;;;;84.95;38.55;;;;;;;9.38;65.60;102083.63;5023220;28;20068;-72
2021/03/25 08:37:34;;;;;;;77.13;37.47;;;;;;;9.70;64.92;102078.44;5023479;28;20029;-74
2021/03/25 08:40:04;;;;;;;76.43;37.50;;;;;;;9.69;63.11;102087.47;5019876;28;20032;-74
2021/03/25 08:42:39;;;;;;;80.45;37.05;;;;;;;9.40;64.62;102091.44;5024385;28;20033;-72
2021/03/25 08:45:22;;;;;;;;;;;;;;;9.67;64.64;102089.53;5023010;28;20402;-72
2021/03/25 08:48:14;;;;;;;76.82;37.55;;;;;;;10.27;63.42;102088.34;5017217;28;19982;-73
2021/03/25 08:51:06;;;;;;;83.63;37.80;;;;;;;10.59;63.07;102083.00;5023656;28;20029;-71
2021/03/25 08:53:40;;;;;;;75.32;39.08;;;;;;;10.67;62.01;102079.25;5024507;28;20131;-74
2021/03/25 08:56:25;;;;;;;76.35;39.00;;;;;;;10.59;60.63;102080.31;5021227;28;20033;-73
2021/03/25 08:58:56;;;;;;;80.40;39.25;;;;;;;9.81;62.09;102080.44;5020592;28;20037;-74
2021/03/25 09:01:31;;;;;;;81.00;39.00;;;;;;;10.15;63.34;102086.50;5023384;28;20036;-71
2021/03/25 09:04:03;;;;;;;82.35;37.83;;;;;;;10.39;61.65;102088.47;5022569;28;20110;-74
2021/03/25 09:06:36;;;;;;;78.32;40.83;;;;;;;10.72;60.51;102084.78;5024428;28;20120;-73
2021/03/25 09:09:16;;;;;;;84.18;39.55;;;;;;;10.70;60.41;102076.16;5023410;28;20073;-72
2021/03/25 09:11:43;;;;;;;76.50;39.05;;;;;;;11.07;60.90;102083.28;5036794;28;20037;-71
2021/03/25 09:14:20;;;;;;;89.25;41.92;;;;;;;10.94;60.61;102080.69;5022118;28;20032;-73
2021/03/25 09:16:46;;;;;;;82.50;39.65;;;;;;;11.31;60.66;102075.44;5022839;28;20043;-74
2021/03/25 09:19:28;;;;;;;75.70;39.10;;;;;;;11.73;60.01;102080.00;5019607;28;22093;-74
2021/03/25 09:21:57;;;;;;;76.57;39.38;;;;;;;12.14;59.30;102075.00;5022415;28;20048;-74
2021/03/25 09:24:23;;;;;;;81.03;41.08;;;;;;;12.57;57.92;102077.53;5023560;28;20029;-73
2021/03/25 09:27:04;;;;;;;75.60;39.58;;;;;;;12.69;55.63;102084.56;5021288;28;20071;-73
2021/03/25 09:29:55;;;;;;;78.82;40.15;;;;;;;13.21;55.56;102065.16;5020574;28;20021;-74
2021/03/25 09:32:35;;;;;;;79.78;40.58;;;;;;;13.07;53.19;102071.78;5021477;28;20048;-72
2021/03/25 09:35:04;;;;;;;73.20;40.08;;;;;;;13.04;54.27;102064.19;5022722;28;20036;-72
2021/03/25 09:37:33;;;;;;;73.53;39.58;;;;;;;13.00;54.97;102069.22;5022320;28;20167;-73
2021/03/25 09:40:04;;;;;;;73.45;39.42;;;;;;;13.35;55.19;102063.06;5020908;28;20128;-73
2021/03/25 09:42:30;;;;;;;79.85;41.03;;;;;;;13.66;54.94;102065.41;5020654;28;20194;-74
2021/03/25 09:44:55;;;;;;;77.82;40.33;;;;;;;13.56;54.55;102074.06;5022771;28;20033;-74
2021/03/25 09:47:28;;;;;;;71.10;39.53;;;;;;;13.52;54.18;102069.38;5024370;28;20063;-74
2021/03/25 09:50:14;;;;;;;71.25;40.10;;;;;;;13.62;54.02;102069.59;5021609;28;20437;-72
2021/03/25 09:53:06;;;;;;;77.55;40.00;;;;;;;13.98;53.35;102068.47;5019777;28;20885;-72
2021/03/25 09:55:35;;;;;;;73.88;39.60;;;;;;;14.35;53.54;102071.63;5020568;28;20025;-72
2021/03/25 09:58:01;;;;;;;72.60;39.30;;;;;;;14.69;52.55;102072.56;5022509;28;20040;-73
2021/03/25 10:00:31;;;;;;;76.88;39.75;;;;;;;14.71;51.69;102066.91;5015863;28;20398;-74
2021/03/25 10:02:59;;;;;;;76.20;39.25;;;;;;;14.53;51.52;102065.25;5035836;28;20513;-72
2021/03/25 10:05:30;;;;;;;69.05;39.60;;;;;;;14.44;52.61;102061.31;5021880;28;20135;-73
2021/03/25 10:08:05;;;;;;;68.15;37.97;;;;;;;14.40;52.82;102062.84;5020311;28;20039;-72
2021/03/25 10:10:35;;;;;;;75.05;39.58;;;;;;;14.53;52.44;102067.94;5021351;28;20031;-74
2021/03/25 10:13:01;;;;;;;71.15;39.97;;;;;;;14.68;51.48;102064.69;5035260;28;20029;-72
2021/03/25 10:15:34;;;;;;;71.53;38.88;;;;;;;14.97;50.93;102066.28;5022705;28;20021;-72
2021/03/25 10:18:05;;;;;;;74.97;40.95;;;;;;;15.26;50.82;102063.47;5021514;28;20040;-73
2021/03/25 10:21:00;;;;;;;66.93;39.03;;;;;;;15.59;49.93;102062.63;5021656;28;20170;-74
2021/03/25 10:23:37;;;;;;;70.43;39.35;;;;;;;15.87;49.49;102061.66;5017841;28;20156;-73
2021/03/25 10:26:15;;;;;;;74.53;38.13;;;;;;;15.88;47.82;102058.72;5019279;28;20044;-73
2021/03/25 10:28:43;;;;;;;71.97;38.85;;;;;;;15.43;46.73;102046.19;5018913;28;20037;-70
2021/03/25 10:31:22;;;;;;;64.57;38.15;;;;;;;15.88;46.85;102049.78;5015587;28;20029;-70
2021/03/25 10:33:50;;;;;;;66.10;38.55;;;;;;;16.24;48.06;102057.25;5020303;28;20047;-70
2021/03/25 10:36:19;;;;;;;67.68;36.55;;;;;;;16.35;46.90;102051.94;5021064;28;20925;-70
2021/03/25 10:38:51;;;;;;;72.88;38.33;;;;;;;16.76;46.93;102047.75;5022813;28;20451;-70
2021/03/25 10:41:23;;;;;;;65.28;38.08;;;;;;;16.73;45.51;102056.41;5020926;28;20040;-70
2021/03/25 10:43:51;;;;;;;65.57;37.17;;;;;;;16.45;45.90;102054.75;5024923;28;20633;-70
2021/03/25 10:46:32;;;;;;;63.15;36.13;;;;;;;16.44;43.16;102045.81;5022989;28;20049;-70
2021/03/25 10:49:03;;;;;;;64.05;35.28;;;;;;;16.65;45.35;102049.53;5023424;28;20026;-70
2021/03/25 10:51:40;;;;;;;68.30;36.88;;;;;;;16.58;43.63;102038.91;5026451;28;20051;-70
2021/03/25 10:54:25;;;;;;;61.00;35.67;;;;;;;16.98;43.93;102040.34;5040906;28;20061;-70
2021/03/25 10:57:28;;;;;;;64.88;37.05;;;;;;;17.16;44.17;102037.22;5024863;28;20461;-70
2021/03/25 11:00:10;;;;;;;64.97;36.85;;;;;;;17.54;44.13;102035.28;5019349;28;20033;-70
2021/03/25 11:02:42;;;;;;;66.40;37.53;;;;;;;17.36;43.74;102035.72;5024299;28;20033;-70
2021/03/25 11:05:17;;;;;;;58.92;35.72;;;;;;;17.38;44.41;102039.81;5025542;28;20021;-70
2021/03/25 11:07:49;;;;;;;61.83;37.97;;;;;;;17.38;43.82;102030.88;5026225;28;20036;-70
2021/03/25 11:10:36;;;;;;;61.80;36.85;;;;;;;17.80;43.75;102037.09;5023235;28;22317;-69
2021/03/25 11:13:07;;;;;;;62.40;35.47;;;;;;;18.05;43.18;102028.22;5023865;28;20072;-70
2021/03/25 11:15:59;;;;;;;65.80;37.40;;;;;;;18.20;41.97;102030.16;5022125;28;20043;-70
2021/03/25 11:18:32;;;;;;;60.78;35.20;;;;;;;18.52;41.77;102027.22;5024649;28;20032;-70
2021/03/25 11:21:00;;;;;;;63.17;37.35;;;;;;;17.41;40.54;102025.72;5023700;28;20679;-70
2021/03/25 11:23:27;;;;;;;61.90;35.72;;;;;;;17.95;41.90;102020.03;5025545;28;20128;-70
2021/03/25 11:25:56;;;;;;;57.97;33.20;;;;;;;17.87;39.25;102017.84;5023701;28;20056;-70
2021/03/25 11:28:22;;;;;;;58.88;35.17;;;;;;;17.35;42.13;102017.84;5009780;28;20943;-69
2021/03/25 11:30:49;;;;;;;53.65;31.83;;;;;;;17.13;41.62;102026.13;5022971;28;20039;-73
2021/03/25 11:33:28;;;;;;;55.70;31.55;;;;;;;16.88;40.65;102034.88;5021966;28;20039;-67
2021/03/25 11:35:54;;;;;;;58.53;33.05;;;;;;;16.42;42.56;102028.22;5023310;28;21053;-69
2021/03/25 11:38:25;;;;;;;51.63;32.88;;;;;;;15.77;43.81;102023.69;5023168;28;20029;-70
2021/03/25 11:41:11;;;;;;;56.90;33.00;;;;;;;15.30;44.06;102024.13;5033561;28;20033;-71
2021/03/25 11:43:39;;;;;;;57.35;33.83;;;;;;;15.36;44.91;102023.94;5024147;28;20029;-71
2021/03/25 11:46:06;;;;;;;57.45;33.30;;;;;;;16.52;43.63;102023.72;5011803;28;20035;-72